Cape Girardeau Regional Airport
KCGI : now visible

Airfield :











YOU CAN JOIN US ON...

 
LOGIN :

Register | Disclaimer

   EN    FR    IT 

 









Legend :    VFR   Marginal VFR   IFR   Intensive IFR   Very Intensive IFR
Visi :
Ceiling :
>= 8 km
>= 3000ft
5 to 8 km
1000 to 3000 ft
1500m to 5 km
500 to 1000 ft
800 to 1500m
200 to 500 ft
< 800m
< 200 ft
Symbols :   Thunderstorms  Fog  Heavy snow  Heavy precipitations  Wind > 20 kt






- Airport Elevation : 342 ft
- IATA code : CGI


KCGI - Cape Girardeau Regional

CURRENT METAR :
  • 251853Z 04007KT 10SM OVC007 06/04 A2964 RMK AO2 RAB1757E24 SLP039 P0001 T00610044

EXPIRED METARs :
  • 251753Z 02007KT 10SM OVC006 05/04 A2967 RMK AO2 PK WND 06028/1711 RAE36 TSE08 SLP049 P0016 60094 T00500039 10056 20044 58040
  • 251724Z 06008G24KT 4SM -RA BR BKN006 BKN060 OVC080 04/03 A2967 RMK AO2 PK WND 06028/1711 TSE08 P0015 T00440033
  • 251714Z 07021G28KT 2 1/2SM +RA BR FEW006 BKN060 OVC070 04/03 A2969 RMK AO2 PK WND 06028/1711 TSE08 PRESFR P0013 T00440028
  • 251653Z 06011G23KT 2 1/2SM TSRA BR FEW008 SCT050 OVC075 04/03 A2976 RMK AO2 LTG DSNT NE-S TSB53 SLP078 P0028 T00440033
  • 251629Z 04015KT 3SM RA BR FEW012 BKN049 OVC080 05/03 A2977 RMK AO2 LTG DSNT S AND NW PRESFR P0017 T00500033

TAF KCGI
Valid from the 25 at 18:00 until the 26 at 18:00 UTC


251757Z 2518/2618 06012G22KT 3SM RA BR VCTS OVC005CB
FM251900 07011G19KT 3SM RA BR VCTS OVC005CB
FM252200 09007KT 4SM BR OVC005
FM260000 14006KT 5SM BR OVC003
FM260600 24005KT 5SM BR BKN002
KZME FIR / North America



MET'MAP, your aeronautical weather chart ! - Copyright ORBIFLY December 2007 - Disclaimer

ORBIFLY MET'MAP TEAM :

Programming & Development : Alexandra Zaïnal
Concept & original design : Baudouin d'Aumeries
Assistance for programming : Marc-Olivier Méhu
Technical & hardware support : Manuel Goepfert

Contact : metmap@orbifly.com




SOURCES & CREDITS :

   NOAA       Earth
Advisory